sensor_id;sensor_type;location;lat;lon;timestamp;P1;durP1;ratioP1;P2;durP2;ratioP2
72899;SDS011;61043;52.036;5.566;2022-08-05T00:00:14;6.82;;;2.67;;
72899;SDS011;61043;52.036;5.566;2022-08-05T00:02:42;5.93;;;3.30;;
72899;SDS011;61043;52.036;5.566;2022-08-05T00:05:17;6.15;;;3.10;;
72899;SDS011;61043;52.036;5.566;2022-08-05T00:08:05;10.05;;;3.40;;
72899;SDS011;61043;52.036;5.566;2022-08-05T00:10:51;7.85;;;3.90;;
72899;SDS011;61043;52.036;5.566;2022-08-05T00:13:18;6.25;;;3.33;;
72899;SDS011;61043;52.036;5.566;2022-08-05T00:15:45;8.05;;;3.05;;
72899;SDS011;61043;52.036;5.566;2022-08-05T00:18:21;7.47;;;3.22;;
72899;SDS011;61043;52.036;5.566;2022-08-05T00:20:49;8.00;;;2.95;;
72899;SDS011;61043;52.036;5.566;2022-08-05T00:23:16;8.43;;;3.58;;
72899;SDS011;61043;52.036;5.566;2022-08-05T00:26:03;7.32;;;3.30;;
72899;SDS011;61043;52.036;5.566;2022-08-05T00:28:30;7.50;;;3.10;;
72899;SDS011;61043;52.036;5.566;2022-08-05T00:30:58;6.70;;;3.20;;
72899;SDS011;61043;52.036;5.566;2022-08-05T00:33:29;5.60;;;2.90;;
72899;SDS011;61043;52.036;5.566;2022-08-05T00:36:16;6.05;;;3.33;;
72899;SDS011;61043;52.036;5.566;2022-08-05T00:39:03;7.47;;;2.90;;
72899;SDS011;61043;52.036;5.566;2022-08-05T00:41:30;7.00;;;3.60;;
72899;SDS011;61043;52.036;5.566;2022-08-05T00:44:17;6.60;;;3.35;;
72899;SDS011;61043;52.036;5.566;2022-08-05T00:46:46;3.80;;;2.83;;
72899;SDS011;61043;52.036;5.566;2022-08-05T00:49:19;6.78;;;3.40;;
72899;SDS011;61043;52.036;5.566;2022-08-05T00:51:47;9.25;;;3.22;;
72899;SDS011;61043;52.036;5.566;2022-08-05T00:54:17;7.20;;;3.60;;
72899;SDS011;61043;52.036;5.566;2022-08-05T00:56:44;9.60;;;3.60;;
72899;SDS011;61043;52.036;5.566;2022-08-05T00:59:17;11.05;;;3.85;;
72899;SDS011;61043;52.036;5.566;2022-08-05T01:01:44;7.57;;;3.47;;
72899;SDS011;61043;52.036;5.566;2022-08-05T01:04:14;7.85;;;3.10;;
72899;SDS011;61043;52.036;5.566;2022-08-05T01:06:46;7.20;;;3.25;;
72899;SDS011;61043;52.036;5.566;2022-08-05T01:09:14;5.85;;;3.28;;
72899;SDS011;61043;52.036;5.566;2022-08-05T01:11:45;9.70;;;3.45;;
72899;SDS011;61043;52.036;5.566;2022-08-05T01:14:27;6.35;;;3.22;;
72899;SDS011;61043;52.036;5.566;2022-08-05T01:17:01;6.40;;;2.97;;
72899;SDS011;61043;52.036;5.566;2022-08-05T01:19:33;8.93;;;3.17;;
72899;SDS011;61043;52.036;5.566;2022-08-05T01:22:37;6.95;;;3.05;;
72899;SDS011;61043;52.036;5.566;2022-08-05T01:29:04;7.30;;;3.22;;
72899;SDS011;61043;52.036;5.566;2022-08-05T01:31:16;4.97;;;2.80;;
72899;SDS011;61043;52.036;5.566;2022-08-05T01:34:27;6.40;;;3.78;;
72899;SDS011;61043;52.036;5.566;2022-08-05T01:39:30;8.13;;;3.17;;
72899;SDS011;61043;52.036;5.566;2022-08-05T01:42:13;5.57;;;3.22;;
72899;SDS011;61043;52.036;5.566;2022-08-05T01:47:19;7.57;;;3.28;;
72899;SDS011;61043;52.036;5.566;2022-08-05T01:49:49;5.40;;;2.78;;
72899;SDS011;61043;52.036;5.566;2022-08-05T01:52:28;9.32;;;3.30;;
72899;SDS011;61043;52.036;5.566;2022-08-05T01:54:59;8.63;;;3.20;;
72899;SDS011;61043;52.036;5.566;2022-08-05T01:57:31;5.30;;;2.78;;
72899;SDS011;61043;52.036;5.566;2022-08-05T02:00:20;5.38;;;3.13;;
72899;SDS011;61043;52.036;5.566;2022-08-05T02:03:00;6.97;;;3.58;;
72899;SDS011;61043;52.036;5.566;2022-08-05T02:05:49;8.07;;;3.40;;
72899;SDS011;61043;52.036;5.566;2022-08-05T02:08:23;5.78;;;3.33;;
72899;SDS011;61043;52.036;5.566;2022-08-05T02:11:14;9.00;;;3.33;;
72899;SDS011;61043;52.036;5.566;2022-08-05T02:13:55;6.47;;;3.47;;
72899;SDS011;61043;52.036;5.566;2022-08-05T02:16:53;10.15;;;2.97;;
72899;SDS011;61043;52.036;5.566;2022-08-05T02:22:01;6.35;;;2.97;;
72899;SDS011;61043;52.036;5.566;2022-08-05T02:24:33;6.30;;;2.95;;
72899;SDS011;61043;52.036;5.566;2022-08-05T02:27:04;6.13;;;3.30;;
72899;SDS011;61043;52.036;5.566;2022-08-05T02:29:35;8.50;;;3.10;;
72899;SDS011;61043;52.036;5.566;2022-08-05T02:32:24;7.20;;;3.05;;
72899;SDS011;61043;52.036;5.566;2022-08-05T02:34:57;9.25;;;3.38;;
72899;SDS011;61043;52.036;5.566;2022-08-05T02:37:39;6.18;;;3.22;;
72899;SDS011;61043;52.036;5.566;2022-08-05T02:40:13;6.95;;;3.28;;
72899;SDS011;61043;52.036;5.566;2022-08-05T02:42:42;5.90;;;3.05;;
72899;SDS011;61043;52.036;5.566;2022-08-05T02:45:18;7.20;;;3.00;;
72899;SDS011;61043;52.036;5.566;2022-08-05T02:47:50;5.82;;;2.90;;
72899;SDS011;61043;52.036;5.566;2022-08-05T02:50:37;6.88;;;3.28;;
72899;SDS011;61043;52.036;5.566;2022-08-05T02:53:09;7.72;;;3.17;;
72899;SDS011;61043;52.036;5.566;2022-08-05T02:55:44;7.35;;;3.33;;
72899;SDS011;61043;52.036;5.566;2022-08-05T02:58:20;7.30;;;3.08;;
72899;SDS011;61043;52.036;5.566;2022-08-05T03:00:53;6.18;;;3.03;;
72899;SDS011;61043;52.036;5.566;2022-08-05T03:03:21;7.40;;;3.30;;
72899;SDS011;61043;52.036;5.566;2022-08-05T03:05:48;5.80;;;3.10;;
72899;SDS011;61043;52.036;5.566;2022-08-05T03:08:37;5.40;;;3.03;;
72899;SDS011;61043;52.036;5.566;2022-08-05T03:11:18;5.47;;;2.90;;
72899;SDS011;61043;52.036;5.566;2022-08-05T03:14:09;6.22;;;2.97;;
72899;SDS011;61043;52.036;5.566;2022-08-05T03:16:38;6.53;;;3.05;;
72899;SDS011;61043;52.036;5.566;2022-08-05T03:19:05;4.82;;;2.63;;
72899;SDS011;61043;52.036;5.566;2022-08-05T03:21:52;8.55;;;3.15;;
72899;SDS011;61043;52.036;5.566;2022-08-05T03:24:19;5.78;;;2.70;;
72899;SDS011;61043;52.036;5.566;2022-08-05T03:26:55;9.07;;;3.45;;
72899;SDS011;61043;52.036;5.566;2022-08-05T03:29:23;7.93;;;2.70;;
72899;SDS011;61043;52.036;5.566;2022-08-05T03:32:10;6.28;;;3.22;;
72899;SDS011;61043;52.036;5.566;2022-08-05T03:34:40;7.10;;;3.13;;
72899;SDS011;61043;52.036;5.566;2022-08-05T03:37:15;8.68;;;3.25;;
72899;SDS011;61043;52.036;5.566;2022-08-05T03:39:56;7.53;;;3.05;;
72899;SDS011;61043;52.036;5.566;2022-08-05T03:42:27;6.40;;;2.85;;
72899;SDS011;61043;52.036;5.566;2022-08-05T03:44:57;5.20;;;2.65;;
72899;SDS011;61043;52.036;5.566;2022-08-05T03:47:23;9.27;;;2.95;;
72899;SDS011;61043;52.036;5.566;2022-08-05T03:49:55;8.93;;;3.20;;
72899;SDS011;61043;52.036;5.566;2022-08-05T03:52:23;7.07;;;2.97;;
72899;SDS011;61043;52.036;5.566;2022-08-05T03:55:16;6.90;;;3.08;;
72899;SDS011;61043;52.036;5.566;2022-08-05T03:58:08;5.80;;;2.95;;
72899;SDS011;61043;52.036;5.566;2022-08-05T04:00:37;8.30;;;3.00;;
72899;SDS011;61043;52.036;5.566;2022-08-05T04:03:07;9.30;;;3.60;;
72899;SDS011;61043;52.036;5.566;2022-08-05T04:05:53;4.95;;;2.83;;
72899;SDS011;61043;52.036;5.566;2022-08-05T04:08:22;6.25;;;3.03;;
72899;SDS011;61043;52.036;5.566;2022-08-05T04:11:02;8.82;;;3.05;;
72899;SDS011;61043;52.036;5.566;2022-08-05T04:13:29;7.05;;;3.00;;
72899;SDS011;61043;52.036;5.566;2022-08-05T04:16:16;5.30;;;2.85;;
72899;SDS011;61043;52.036;5.566;2022-08-05T04:18:53;7.03;;;3.15;;
72899;SDS011;61043;52.036;5.566;2022-08-05T04:21:23;7.20;;;3.22;;
72899;SDS011;61043;52.036;5.566;2022-08-05T04:24:10;5.88;;;3.60;;
72899;SDS011;61043;52.036;5.566;2022-08-05T04:26:44;8.40;;;3.50;;
72899;SDS011;61043;52.036;5.566;2022-08-05T04:29:11;5.38;;;3.30;;
72899;SDS011;61043;52.036;5.566;2022-08-05T04:31:39;6.00;;;3.30;;
72899;SDS011;61043;52.036;5.566;2022-08-05T04:34:08;8.77;;;3.70;;
72899;SDS011;61043;52.036;5.566;2022-08-05T04:36:54;7.45;;;3.90;;
72899;SDS011;61043;52.036;5.566;2022-08-05T04:39:21;6.93;;;3.60;;
72899;SDS011;61043;52.036;5.566;2022-08-05T04:41:49;7.05;;;3.88;;
72899;SDS011;61043;52.036;5.566;2022-08-05T04:44:16;7.80;;;3.95;;
72899;SDS011;61043;52.036;5.566;2022-08-05T04:46:55;4.45;;;2.80;;
72899;SDS011;61043;52.036;5.566;2022-08-05T04:49:24;10.60;;;3.88;;
72899;SDS011;61043;52.036;5.566;2022-08-05T04:52:11;6.82;;;3.72;;
72899;SDS011;61043;52.036;5.566;2022-08-05T04:54:38;8.02;;;4.13;;
72899;SDS011;61043;52.036;5.566;2022-08-05T04:57:04;8.50;;;4.20;;
72899;SDS011;61043;52.036;5.566;2022-08-05T04:59:31;7.65;;;3.60;;
72899;SDS011;61043;52.036;5.566;2022-08-05T05:02:04;5.93;;;3.38;;
72899;SDS011;61043;52.036;5.566;2022-08-05T05:04:51;8.23;;;3.85;;
72899;SDS011;61043;52.036;5.566;2022-08-05T05:07:27;5.80;;;3.60;;
72899;SDS011;61043;52.036;5.566;2022-08-05T05:09:58;7.60;;;3.65;;
72899;SDS011;61043;52.036;5.566;2022-08-05T05:12:27;5.67;;;3.50;;
72899;SDS011;61043;52.036;5.566;2022-08-05T05:14:54;6.80;;;3.67;;
72899;SDS011;61043;52.036;5.566;2022-08-05T05:17:21;11.63;;;3.53;;
72899;SDS011;61043;52.036;5.566;2022-08-05T05:19:53;7.57;;;3.40;;
72899;SDS011;61043;52.036;5.566;2022-08-05T05:22:21;8.55;;;4.07;;
72899;SDS011;61043;52.036;5.566;2022-08-05T05:24:54;6.35;;;3.45;;
72899;SDS011;61043;52.036;5.566;2022-08-05T05:27:30;5.32;;;3.40;;
72899;SDS011;61043;52.036;5.566;2022-08-05T05:30:14;10.25;;;3.70;;
72899;SDS011;61043;52.036;5.566;2022-08-05T05:32:56;8.45;;;4.05;;
72899;SDS011;61043;52.036;5.566;2022-08-05T05:35:28;6.28;;;3.33;;
72899;SDS011;61043;52.036;5.566;2022-08-05T05:38:03;8.18;;;4.07;;
72899;SDS011;61043;52.036;5.566;2022-08-05T05:40:38;6.20;;;3.72;;
72899;SDS011;61043;52.036;5.566;2022-08-05T05:43:16;7.20;;;4.20;;
72899;SDS011;61043;52.036;5.566;2022-08-05T05:46:02;5.90;;;3.90;;
72899;SDS011;61043;52.036;5.566;2022-08-05T05:48:30;6.05;;;3.40;;
72899;SDS011;61043;52.036;5.566;2022-08-05T05:50:59;5.15;;;3.13;;
72899;SDS011;61043;52.036;5.566;2022-08-05T05:53:41;6.38;;;3.35;;
72899;SDS011;61043;52.036;5.566;2022-08-05T05:56:22;5.63;;;3.30;;
72899;SDS011;61043;52.036;5.566;2022-08-05T05:58:58;8.18;;;3.90;;
72899;SDS011;61043;52.036;5.566;2022-08-05T06:04:04;8.13;;;3.50;;
72899;SDS011;61043;52.036;5.566;2022-08-05T06:06:32;8.80;;;3.85;;
72899;SDS011;61043;52.036;5.566;2022-08-05T06:09:00;8.77;;;4.50;;
72899;SDS011;61043;52.036;5.566;2022-08-05T06:11:29;11.27;;;4.88;;
72899;SDS011;61043;52.036;5.566;2022-08-05T06:13:56;6.68;;;3.95;;
72899;SDS011;61043;52.036;5.566;2022-08-05T06:16:25;6.83;;;3.70;;
72899;SDS011;61043;52.036;5.566;2022-08-05T06:18:58;6.95;;;3.80;;
72899;SDS011;61043;52.036;5.566;2022-08-05T06:21:27;7.43;;;4.47;;
72899;SDS011;61043;52.036;5.566;2022-08-05T06:24:03;7.55;;;3.72;;
72899;SDS011;61043;52.036;5.566;2022-08-05T06:26:37;7.60;;;3.80;;
72899;SDS011;61043;52.036;5.566;2022-08-05T06:29:19;6.32;;;3.75;;
72899;SDS011;61043;52.036;5.566;2022-08-05T06:32:06;6.95;;;3.78;;
72899;SDS011;61043;52.036;5.566;2022-08-05T06:34:54;6.30;;;3.53;;
72899;SDS011;61043;52.036;5.566;2022-08-05T06:37:23;5.30;;;3.33;;
72899;SDS011;61043;52.036;5.566;2022-08-05T06:40:11;5.72;;;3.58;;
72899;SDS011;61043;52.036;5.566;2022-08-05T06:42:39;5.03;;;3.35;;
72899;SDS011;61043;52.036;5.566;2022-08-05T06:45:06;5.15;;;3.20;;
72899;SDS011;61043;52.036;5.566;2022-08-05T06:47:34;6.95;;;3.88;;
72899;SDS011;61043;52.036;5.566;2022-08-05T06:50:22;7.18;;;3.70;;
72899;SDS011;61043;52.036;5.566;2022-08-05T06:52:48;6.55;;;3.70;;
72899;SDS011;61043;52.036;5.566;2022-08-05T06:55:28;7.32;;;3.63;;
72899;SDS011;61043;52.036;5.566;2022-08-05T06:58:01;7.10;;;3.78;;
72899;SDS011;61043;52.036;5.566;2022-08-05T07:00:47;7.95;;;3.58;;
72899;SDS011;61043;52.036;5.566;2022-08-05T07:03:15;7.88;;;3.80;;
72899;SDS011;61043;52.036;5.566;2022-08-05T07:05:42;7.57;;;3.15;;
72899;SDS011;61043;52.036;5.566;2022-08-05T07:08:11;5.97;;;3.07;;
72899;SDS011;61043;52.036;5.566;2022-08-05T07:10:38;5.75;;;3.33;;
72899;SDS011;61043;52.036;5.566;2022-08-05T07:13:19;7.70;;;3.22;;
72899;SDS011;61043;52.036;5.566;2022-08-05T07:16:25;5.63;;;2.85;;
72899;SDS011;61043;52.036;5.566;2022-08-05T07:19:32;7.30;;;3.10;;
72899;SDS011;61043;52.036;5.566;2022-08-05T07:22:19;6.93;;;2.97;;
72899;SDS011;61043;52.036;5.566;2022-08-05T07:24:58;7.25;;;3.03;;
72899;SDS011;61043;52.036;5.566;2022-08-05T07:27:49;4.68;;;3.03;;
72899;SDS011;61043;52.036;5.566;2022-08-05T07:30:27;6.53;;;2.92;;
72899;SDS011;61043;52.036;5.566;2022-08-05T07:33:00;5.05;;;2.97;;
72899;SDS011;61043;52.036;5.566;2022-08-05T07:35:34;5.53;;;2.80;;
72899;SDS011;61043;52.036;5.566;2022-08-05T07:38:21;6.30;;;2.70;;
72899;SDS011;61043;52.036;5.566;2022-08-05T07:41:07;4.93;;;2.40;;
72899;SDS011;61043;52.036;5.566;2022-08-05T07:43:56;4.32;;;2.70;;
72899;SDS011;61043;52.036;5.566;2022-08-05T07:46:24;5.68;;;2.80;;
72899;SDS011;61043;52.036;5.566;2022-08-05T07:48:53;4.15;;;2.42;;
72899;SDS011;61043;52.036;5.566;2022-08-05T07:51:30;8.30;;;2.60;;
72899;SDS011;61043;52.036;5.566;2022-08-05T07:54:13;5.40;;;2.55;;
72899;SDS011;61043;52.036;5.566;2022-08-05T07:56:40;3.78;;;2.13;;
72899;SDS011;61043;52.036;5.566;2022-08-05T07:59:27;3.00;;;2.20;;
72899;SDS011;61043;52.036;5.566;2022-08-05T08:02:06;6.15;;;2.35;;
72899;SDS011;61043;52.036;5.566;2022-08-05T08:04:42;6.80;;;2.25;;
72899;SDS011;61043;52.036;5.566;2022-08-05T08:07:11;5.13;;;2.10;;
72899;SDS011;61043;52.036;5.566;2022-08-05T08:09:38;4.90;;;1.80;;
72899;SDS011;61043;52.036;5.566;2022-08-05T08:12:05;3.92;;;1.80;;
72899;SDS011;61043;52.036;5.566;2022-08-05T08:14:52;4.40;;;2.00;;
72899;SDS011;61043;52.036;5.566;2022-08-05T08:17:19;4.72;;;2.00;;
72899;SDS011;61043;52.036;5.566;2022-08-05T08:19:47;3.17;;;1.60;;
72899;SDS011;61043;52.036;5.566;2022-08-05T08:22:33;3.58;;;1.73;;
72899;SDS011;61043;52.036;5.566;2022-08-05T08:25:00;3.45;;;1.50;;
72899;SDS011;61043;52.036;5.566;2022-08-05T08:27:28;2.30;;;1.40;;
72899;SDS011;61043;52.036;5.566;2022-08-05T08:30:05;4.13;;;1.70;;
72899;SDS011;61043;52.036;5.566;2022-08-05T08:32:53;3.30;;;1.55;;
72899;SDS011;61043;52.036;5.566;2022-08-05T08:35:19;2.97;;;1.60;;
72899;SDS011;61043;52.036;5.566;2022-08-05T08:37:51;3.13;;;1.50;;
72899;SDS011;61043;52.036;5.566;2022-08-05T08:40:21;3.65;;;1.55;;
72899;SDS011;61043;52.036;5.566;2022-08-05T08:42:49;3.30;;;1.63;;
72899;SDS011;61043;52.036;5.566;2022-08-05T08:45:19;2.50;;;1.60;;
72899;SDS011;61043;52.036;5.566;2022-08-05T08:47:54;2.97;;;1.38;;
72899;SDS011;61043;52.036;5.566;2022-08-05T08:50:46;2.53;;;1.50;;
72899;SDS011;61043;52.036;5.566;2022-08-05T08:53:36;2.83;;;1.35;;
72899;SDS011;61043;52.036;5.566;2022-08-05T08:56:10;3.63;;;1.27;;
72899;SDS011;61043;52.036;5.566;2022-08-05T08:58:37;2.13;;;1.20;;
72899;SDS011;61043;52.036;5.566;2022-08-05T09:01:13;2.28;;;1.20;;
72899;SDS011;61043;52.036;5.566;2022-08-05T09:03:50;2.65;;;1.30;;
72899;SDS011;61043;52.036;5.566;2022-08-05T09:06:23;1.80;;;1.30;;
72899;SDS011;61043;52.036;5.566;2022-08-05T09:08:55;3.95;;;1.50;;
72899;SDS011;61043;52.036;5.566;2022-08-05T09:11:23;2.80;;;1.15;;
72899;SDS011;61043;52.036;5.566;2022-08-05T09:14:10;2.60;;;1.40;;
72899;SDS011;61043;52.036;5.566;2022-08-05T09:17:02;5.90;;;1.23;;
72899;SDS011;61043;52.036;5.566;2022-08-05T09:19:35;2.65;;;1.25;;
72899;SDS011;61043;52.036;5.566;2022-08-05T09:22:22;2.47;;;1.00;;
72899;SDS011;61043;52.036;5.566;2022-08-05T09:25:00;2.45;;;1.10;;
72899;SDS011;61043;52.036;5.566;2022-08-05T09:27:39;3.53;;;1.05;;
72899;SDS011;61043;52.036;5.566;2022-08-05T09:30:25;2.70;;;1.10;;
72899;SDS011;61043;52.036;5.566;2022-08-05T09:32:52;2.58;;;1.05;;
72899;SDS011;61043;52.036;5.566;2022-08-05T09:35:27;2.08;;;0.95;;
72899;SDS011;61043;52.036;5.566;2022-08-05T09:37:55;3.25;;;1.27;;
72899;SDS011;61043;52.036;5.566;2022-08-05T09:40:42;2.72;;;1.10;;
72899;SDS011;61043;52.036;5.566;2022-08-05T09:43:51;2.75;;;1.25;;
72899;SDS011;61043;52.036;5.566;2022-08-05T09:48:54;2.90;;;1.30;;
72899;SDS011;61043;52.036;5.566;2022-08-05T09:51:42;4.05;;;1.42;;
72899;SDS011;61043;52.036;5.566;2022-08-05T09:54:15;3.35;;;1.00;;
72899;SDS011;61043;52.036;5.566;2022-08-05T09:56:54;2.05;;;0.90;;
72899;SDS011;61043;52.036;5.566;2022-08-05T09:59:23;3.70;;;1.17;;
72899;SDS011;61043;52.036;5.566;2022-08-05T10:01:53;2.97;;;1.10;;
72899;SDS011;61043;52.036;5.566;2022-08-05T10:04:30;2.90;;;1.10;;
72899;SDS011;61043;52.036;5.566;2022-08-05T10:07:03;2.70;;;1.15;;
72899;SDS011;61043;52.036;5.566;2022-08-05T10:09:54;4.53;;;1.40;;
72899;SDS011;61043;52.036;5.566;2022-08-05T10:12:41;4.03;;;1.23;;
72899;SDS011;61043;52.036;5.566;2022-08-05T10:15:16;5.28;;;1.30;;
72899;SDS011;61043;52.036;5.566;2022-08-05T10:20:33;2.95;;;0.95;;
72899;SDS011;61043;52.036;5.566;2022-08-05T10:23:01;2.65;;;1.13;;
72899;SDS011;61043;52.036;5.566;2022-08-05T10:25:28;3.10;;;1.20;;
72899;SDS011;61043;52.036;5.566;2022-08-05T10:27:57;2.55;;;1.00;;
72899;SDS011;61043;52.036;5.566;2022-08-05T10:30:42;2.15;;;1.00;;
72899;SDS011;61043;52.036;5.566;2022-08-05T10:33:30;3.58;;;1.10;;
72899;SDS011;61043;52.036;5.566;2022-08-05T10:36:01;2.47;;;1.00;;
72899;SDS011;61043;52.036;5.566;2022-08-05T10:38:30;3.25;;;1.10;;
72899;SDS011;61043;52.036;5.566;2022-08-05T10:43:34;1.80;;;0.90;;
72899;SDS011;61043;52.036;5.566;2022-08-05T10:46:05;2.50;;;1.10;;
72899;SDS011;61043;52.036;5.566;2022-08-05T10:48:37;4.25;;;1.40;;
72899;SDS011;61043;52.036;5.566;2022-08-05T10:51:25;3.58;;;0.95;;
72899;SDS011;61043;52.036;5.566;2022-08-05T10:57:24;1.65;;;0.90;;
72899;SDS011;61043;52.036;5.566;2022-08-05T11:00:09;2.00;;;0.80;;
72899;SDS011;61043;52.036;5.566;2022-08-05T11:06:02;3.17;;;1.30;;
72899;SDS011;61043;52.036;5.566;2022-08-05T11:08:29;3.90;;;1.10;;
72899;SDS011;61043;52.036;5.566;2022-08-05T11:11:38;3.10;;;1.00;;
72899;SDS011;61043;52.036;5.566;2022-08-05T11:14:10;4.15;;;1.20;;
72899;SDS011;61043;52.036;5.566;2022-08-05T11:16:38;4.90;;;1.00;;
72899;SDS011;61043;52.036;5.566;2022-08-05T11:19:23;2.08;;;0.90;;
72899;SDS011;61043;52.036;5.566;2022-08-05T11:25:26;3.10;;;1.08;;
72899;SDS011;61043;52.036;5.566;2022-08-05T11:33:27;1.55;;;1.00;;
72899;SDS011;61043;52.036;5.566;2022-08-05T11:36:12;2.42;;;0.77;;
72899;SDS011;61043;52.036;5.566;2022-08-05T11:39:00;1.80;;;1.00;;
72899;SDS011;61043;52.036;5.566;2022-08-05T11:41:27;1.65;;;0.90;;
72899;SDS011;61043;52.036;5.566;2022-08-05T11:44:16;2.85;;;1.27;;
72899;SDS011;61043;52.036;5.566;2022-08-05T11:47:06;2.08;;;1.00;;
72899;SDS011;61043;52.036;5.566;2022-08-05T11:49:41;1.40;;;0.90;;
72899;SDS011;61043;52.036;5.566;2022-08-05T11:52:21;3.72;;;1.70;;
72899;SDS011;61043;52.036;5.566;2022-08-05T11:54:55;2.60;;;1.30;;
72899;SDS011;61043;52.036;5.566;2022-08-05T11:57:30;3.25;;;1.00;;
72899;SDS011;61043;52.036;5.566;2022-08-05T12:00:29;3.58;;;0.80;;
72899;SDS011;61043;52.036;5.566;2022-08-05T12:02:56;3.70;;;1.00;;
72899;SDS011;61043;52.036;5.566;2022-08-05T12:05:24;1.98;;;1.00;;
72899;SDS011;61043;52.036;5.566;2022-08-05T12:08:08;1.17;;;0.73;;
72899;SDS011;61043;52.036;5.566;2022-08-05T12:10:43;4.05;;;1.15;;
72899;SDS011;61043;52.036;5.566;2022-08-05T12:13:14;3.88;;;0.90;;
72899;SDS011;61043;52.036;5.566;2022-08-05T12:16:02;2.83;;;1.23;;
72899;SDS011;61043;52.036;5.566;2022-08-05T12:18:43;2.88;;;0.95;;
72899;SDS011;61043;52.036;5.566;2022-08-05T12:21:19;4.40;;;1.00;;
72899;SDS011;61043;52.036;5.566;2022-08-05T12:24:04;3.55;;;0.90;;
72899;SDS011;61043;52.036;5.566;2022-08-05T12:26:39;1.83;;;0.80;;
72899;SDS011;61043;52.036;5.566;2022-08-05T12:29:10;1.65;;;0.88;;
72899;SDS011;61043;52.036;5.566;2022-08-05T12:31:59;2.03;;;0.90;;
72899;SDS011;61043;52.036;5.566;2022-08-05T12:34:28;3.33;;;1.00;;
72899;SDS011;61043;52.036;5.566;2022-08-05T12:36:58;2.00;;;1.00;;
72899;SDS011;61043;52.036;5.566;2022-08-05T12:39:28;3.70;;;1.20;;
72899;SDS011;61043;52.036;5.566;2022-08-05T12:42:15;3.10;;;1.20;;
72899;SDS011;61043;52.036;5.566;2022-08-05T12:44:45;3.05;;;1.00;;
72899;SDS011;61043;52.036;5.566;2022-08-05T12:47:13;3.30;;;1.05;;
72899;SDS011;61043;52.036;5.566;2022-08-05T12:49:53;1.70;;;1.00;;
72899;SDS011;61043;52.036;5.566;2022-08-05T12:52:31;3.80;;;1.00;;
72899;SDS011;61043;52.036;5.566;2022-08-05T12:55:20;2.03;;;1.08;;
72899;SDS011;61043;52.036;5.566;2022-08-05T12:57:51;2.35;;;0.80;;
72899;SDS011;61043;52.036;5.566;2022-08-05T13:00:42;2.30;;;1.02;;
72899;SDS011;61043;52.036;5.566;2022-08-05T13:03:30;2.20;;;0.98;;
72899;SDS011;61043;52.036;5.566;2022-08-05T13:05:59;3.25;;;1.20;;
72899;SDS011;61043;52.036;5.566;2022-08-05T13:08:29;1.77;;;1.00;;
72899;SDS011;61043;52.036;5.566;2022-08-05T13:10:58;3.40;;;1.15;;
72899;SDS011;61043;52.036;5.566;2022-08-05T13:13:26;2.67;;;0.95;;
72899;SDS011;61043;52.036;5.566;2022-08-05T13:16:14;2.55;;;1.05;;
72899;SDS011;61043;52.036;5.566;2022-08-05T13:18:51;4.88;;;1.05;;
72899;SDS011;61043;52.036;5.566;2022-08-05T13:21:24;1.85;;;1.00;;
72899;SDS011;61043;52.036;5.566;2022-08-05T13:24:02;2.65;;;1.00;;
72899;SDS011;61043;52.036;5.566;2022-08-05T13:26:29;2.28;;;0.90;;
72899;SDS011;61043;52.036;5.566;2022-08-05T13:28:56;2.58;;;1.10;;
72899;SDS011;61043;52.036;5.566;2022-08-05T13:31:24;3.90;;;1.00;;
72899;SDS011;61043;52.036;5.566;2022-08-05T13:34:12;5.05;;;1.08;;
72899;SDS011;61043;52.036;5.566;2022-08-05T13:36:51;3.92;;;1.48;;
72899;SDS011;61043;52.036;5.566;2022-08-05T13:39:18;3.22;;;1.10;;
72899;SDS011;61043;52.036;5.566;2022-08-05T13:42:05;4.55;;;1.20;;
72899;SDS011;61043;52.036;5.566;2022-08-05T13:44:39;2.97;;;1.10;;
72899;SDS011;61043;52.036;5.566;2022-08-05T13:47:11;3.25;;;1.10;;
72899;SDS011;61043;52.036;5.566;2022-08-05T13:50:00;3.42;;;1.20;;
72899;SDS011;61043;52.036;5.566;2022-08-05T13:52:31;2.33;;;1.10;;
72899;SDS011;61043;52.036;5.566;2022-08-05T13:55:00;5.93;;;1.30;;
72899;SDS011;61043;52.036;5.566;2022-08-05T13:57:32;5.25;;;1.10;;
72899;SDS011;61043;52.036;5.566;2022-08-05T14:00:17;7.68;;;1.20;;
72899;SDS011;61043;52.036;5.566;2022-08-05T14:02:53;3.40;;;1.48;;
72899;SDS011;61043;52.036;5.566;2022-08-05T14:05:20;3.00;;;1.27;;
72899;SDS011;61043;52.036;5.566;2022-08-05T14:08:07;2.95;;;1.30;;
72899;SDS011;61043;52.036;5.566;2022-08-05T14:10:46;2.73;;;1.30;;
72899;SDS011;61043;52.036;5.566;2022-08-05T14:13:13;3.88;;;1.10;;
72899;SDS011;61043;52.036;5.566;2022-08-05T14:15:40;2.63;;;1.20;;
72899;SDS011;61043;52.036;5.566;2022-08-05T14:18:27;3.03;;;1.10;;
72899;SDS011;61043;52.036;5.566;2022-08-05T14:20:54;2.58;;;1.40;;
72899;SDS011;61043;52.036;5.566;2022-08-05T14:23:21;2.70;;;1.00;;
72899;SDS011;61043;52.036;5.566;2022-08-05T14:25:54;2.80;;;1.33;;
72899;SDS011;61043;52.036;5.566;2022-08-05T14:28:24;2.42;;;1.20;;
72899;SDS011;61043;52.036;5.566;2022-08-05T14:30:56;2.85;;;1.20;;
72899;SDS011;61043;52.036;5.566;2022-08-05T14:33:24;3.10;;;1.20;;
72899;SDS011;61043;52.036;5.566;2022-08-05T14:35:51;2.33;;;1.30;;
72899;SDS011;61043;52.036;5.566;2022-08-05T14:38:19;3.05;;;1.25;;
72899;SDS011;61043;52.036;5.566;2022-08-05T14:40:59;3.53;;;1.20;;
72899;SDS011;61043;52.036;5.566;2022-08-05T14:43:33;2.75;;;1.10;;
72899;SDS011;61043;52.036;5.566;2022-08-05T14:46:21;6.22;;;1.30;;
72899;SDS011;61043;52.036;5.566;2022-08-05T14:48:54;4.05;;;1.35;;
72899;SDS011;61043;52.036;5.566;2022-08-05T14:51:22;5.43;;;1.90;;
72899;SDS011;61043;52.036;5.566;2022-08-05T14:53:49;6.18;;;2.28;;
72899;SDS011;61043;52.036;5.566;2022-08-05T14:56:36;3.53;;;1.23;;
72899;SDS011;61043;52.036;5.566;2022-08-05T14:59:09;5.22;;;1.40;;
72899;SDS011;61043;52.036;5.566;2022-08-05T15:01:37;3.00;;;1.00;;
72899;SDS011;61043;52.036;5.566;2022-08-05T15:04:13;2.00;;;1.10;;
72899;SDS011;61043;52.036;5.566;2022-08-05T15:06:40;4.63;;;1.20;;
72899;SDS011;61043;52.036;5.566;2022-08-05T15:09:14;2.25;;;1.00;;
72899;SDS011;61043;52.036;5.566;2022-08-05T15:12:01;3.83;;;1.10;;
72899;SDS011;61043;52.036;5.566;2022-08-05T15:14:29;2.97;;;1.25;;
72899;SDS011;61043;52.036;5.566;2022-08-05T15:17:07;4.40;;;1.20;;
72899;SDS011;61043;52.036;5.566;2022-08-05T15:19:54;4.35;;;1.20;;
72899;SDS011;61043;52.036;5.566;2022-08-05T15:22:22;1.92;;;1.10;;
72899;SDS011;61043;52.036;5.566;2022-08-05T15:24:53;3.75;;;1.00;;
72899;SDS011;61043;52.036;5.566;2022-08-05T15:27:20;2.05;;;1.00;;
72899;SDS011;61043;52.036;5.566;2022-08-05T15:29:50;4.43;;;1.02;;
72899;SDS011;61043;52.036;5.566;2022-08-05T15:32:22;1.90;;;1.20;;
72899;SDS011;61043;52.036;5.566;2022-08-05T15:34:54;3.97;;;1.30;;
72899;SDS011;61043;52.036;5.566;2022-08-05T15:37:21;3.10;;;1.10;;
72899;SDS011;61043;52.036;5.566;2022-08-05T15:40:08;5.40;;;1.20;;
72899;SDS011;61043;52.036;5.566;2022-08-05T15:42:56;2.70;;;1.08;;
72899;SDS011;61043;52.036;5.566;2022-08-05T15:45:39;3.08;;;1.27;;
72899;SDS011;61043;52.036;5.566;2022-08-05T15:48:10;3.95;;;1.23;;
72899;SDS011;61043;52.036;5.566;2022-08-05T15:50:40;3.17;;;1.10;;
72899;SDS011;61043;52.036;5.566;2022-08-05T15:53:09;4.03;;;1.47;;
72899;SDS011;61043;52.036;5.566;2022-08-05T15:55:37;3.45;;;1.20;;
72899;SDS011;61043;52.036;5.566;2022-08-05T15:58:24;3.17;;;1.20;;
72899;SDS011;61043;52.036;5.566;2022-08-05T16:00:51;2.88;;;1.10;;
72899;SDS011;61043;52.036;5.566;2022-08-05T16:03:38;4.70;;;1.20;;
72899;SDS011;61043;52.036;5.566;2022-08-05T16:06:06;4.00;;;1.40;;
72899;SDS011;61043;52.036;5.566;2022-08-05T16:08:36;3.47;;;1.38;;
72899;SDS011;61043;52.036;5.566;2022-08-05T16:11:03;5.35;;;1.40;;
72899;SDS011;61043;52.036;5.566;2022-08-05T16:13:30;3.90;;;1.45;;
72899;SDS011;61043;52.036;5.566;2022-08-05T16:16:00;3.03;;;1.17;;